Time;durP1;ratioP1;P1;durP2;ratioP2;P2;SDS_P1;SDS_P2;PMS_P1;PMS_P2;Temp;Humidity;BMP_temperature;BMP_pressure;BME280_temperature;BME280_humidity;BME280_pressure;Samples;Min_cycle;Max_cycle;Signal;HPM_P1;HPM_P2
2021/11/14 00:01:09;;;;;;;22.55;13.52;;;;;;;;;;4916029;29;20059;-85
2021/11/14 00:03:36;;;;;;;20.42;13.38;;;;;;;;;;4908448;29;20367;-84
2021/11/14 00:06:03;;;;;;;21.00;13.68;;;;;;;;;;4900095;29;20024;-84
2021/11/14 00:08:32;;;;;;;21.35;13.63;;;;;;;;;;4900863;29;20032;-86
2021/11/14 00:11:01;;;;;;;21.48;14.27;;;;;;;;;;4900215;29;20509;-86
2021/11/14 00:13:28;;;;;;;20.55;13.90;;;;;;;;;;4899028;29;20033;-86
2021/11/14 00:15:54;;;;;;;21.38;13.75;;;;;;;;;;4898566;29;20620;-86
2021/11/14 00:18:20;;;;;;;21.88;12.70;;;;;;;;;;4904074;29;20059;-86
2021/11/14 00:20:47;;;;;;;21.10;13.73;;;;;;;;;;4898664;29;20033;-86
2021/11/14 00:23:14;;;;;;;21.15;13.82;;;;;;;;;;4914687;29;20373;-86
2021/11/14 00:25:40;;;;;;;19.77;12.82;;;;;;;;;;4899714;29;20399;-86
2021/11/14 00:28:08;;;;;;;20.02;13.32;;;;;;;;;;4899575;29;20036;-86
2021/11/14 00:30:35;;;;;;;20.05;13.75;;;;;;;;;;4896289;29;20025;-86
2021/11/14 00:33:02;;;;;;;20.85;13.13;;;;;;;;;;4881932;29;20032;-86
2021/11/14 00:35:28;;;;;;;24.05;14.45;;;;;;;;;;4900447;29;20028;-86
2021/11/14 00:37:54;;;;;;;23.00;13.45;;;;;;;;;;4899842;29;20048;-86
2021/11/14 00:40:28;;;;;;;19.60;13.40;;;;;;;;;;4898738;29;20044;-86
2021/11/14 00:42:55;;;;;;;21.17;13.55;;;;;;;;;;4899869;29;20562;-85
2021/11/14 00:45:22;;;;;;;19.02;13.40;;;;;;;;;;4899800;29;20033;-86
2021/11/14 00:47:48;;;;;;;22.75;14.02;;;;;;;;;;4913361;29;20063;-86
2021/11/14 00:50:15;;;;;;;21.27;14.20;;;;;;;;;;4899010;29;20360;-86
2021/11/14 00:52:43;;;;;;;20.27;13.05;;;;;;;;;;4892987;29;20021;-85
2021/11/14 00:55:10;;;;;;;21.83;14.02;;;;;;;;;;4898300;29;20040;-85
2021/11/14 00:57:37;;;;;;;20.38;13.25;;;;;;;;;;4899506;29;20095;-86
2021/11/14 01:00:06;;;;;;;23.90;15.00;;;;;;;;;;4898665;29;20040;-86
2021/11/14 01:02:32;;;;;;;22.38;15.10;;;;;;;;;;4901746;29;20036;-85
2021/11/14 01:04:58;;;;;;;23.88;15.43;;;;;;;;;;4901079;29;20477;-86
2021/11/14 01:07:24;;;;;;;23.17;14.80;;;;;;;;;;4901716;29;20028;-86
2021/11/14 01:09:50;;;;;;;23.35;14.82;;;;;;;;;;4901751;29;20075;-86
2021/11/14 01:12:16;;;;;;;22.60;13.88;;;;;;;;;;4901109;29;20105;-86
2021/11/14 01:14:42;;;;;;;24.25;14.75;;;;;;;;;;4900532;29;20060;-86
2021/11/14 01:17:09;;;;;;;23.80;14.27;;;;;;;;;;4899307;29;20147;-86
2021/11/14 01:19:35;;;;;;;24.00;13.95;;;;;;;;;;4917534;29;20043;-86
2021/11/14 01:22:01;;;;;;;21.98;15.15;;;;;;;;;;4918571;29;20044;-86
2021/11/14 01:24:27;;;;;;;23.63;14.23;;;;;;;;;;4901129;29;20033;-86
2021/11/14 01:26:53;;;;;;;23.20;15.27;;;;;;;;;;4900447;29;20080;-87
2021/11/14 01:29:19;;;;;;;24.77;15.50;;;;;;;;;;4900654;29;20028;-86
2021/11/14 01:31:45;;;;;;;20.85;13.95;;;;;;;;;;4917997;29;20048;-86
2021/11/14 01:34:11;;;;;;;21.52;14.00;;;;;;;;;;4901161;29;20498;-86
2021/11/14 01:36:37;;;;;;;22.75;14.32;;;;;;;;;;4900665;29;20091;-86
2021/11/14 01:39:06;;;;;;;23.55;13.13;;;;;;;;;;4900569;29;20043;-86
2021/11/14 01:41:32;;;;;;;22.05;14.45;;;;;;;;;;4910964;29;20130;-87
2021/11/14 01:43:58;;;;;;;22.75;15.00;;;;;;;;;;4915768;29;20182;-86
2021/11/14 01:46:24;;;;;;;21.38;14.63;;;;;;;;;;4900051;29;20152;-86
2021/11/14 01:48:51;;;;;;;21.90;14.70;;;;;;;;;;4918017;29;20021;-86
2021/11/14 01:51:17;;;;;;;26.13;14.68;;;;;;;;;;4899779;29;20039;-86
2021/11/14 01:53:44;;;;;;;24.23;14.65;;;;;;;;;;4917446;29;20039;-86
2021/11/14 01:56:11;;;;;;;24.95;15.63;;;;;;;;;;4899314;29;20043;-86
2021/11/14 01:58:38;;;;;;;23.85;14.73;;;;;;;;;;4897956;29;20032;-86
2021/11/14 02:01:08;;;;;;;24.38;14.95;;;;;;;;;;4914081;29;20036;-86
2021/11/14 02:03:35;;;;;;;24.33;15.52;;;;;;;;;;4900561;29;20482;-86
2021/11/14 02:06:04;;;;;;;24.48;14.38;;;;;;;;;;4915251;29;20096;-86
2021/11/14 02:08:30;;;;;;;27.05;15.63;;;;;;;;;;4900572;29;20028;-86
2021/11/14 02:10:56;;;;;;;26.50;16.08;;;;;;;;;;4899552;29;20028;-86
2021/11/14 02:13:22;;;;;;;25.10;14.57;;;;;;;;;;4899572;29;20028;-86
2021/11/14 02:15:48;;;;;;;25.67;14.30;;;;;;;;;;4895016;29;20164;-86
2021/11/14 02:18:15;;;;;;;26.23;14.65;;;;;;;;;;4911506;29;20024;-86
2021/11/14 02:20:44;;;;;;;22.48;14.65;;;;;;;;;;4899032;29;20051;-86
2021/11/14 02:23:11;;;;;;;26.77;14.77;;;;;;;;;;4899558;29;20040;-86
2021/11/14 02:25:38;;;;;;;22.15;14.25;;;;;;;;;;4896267;29;20036;-87
2021/11/14 02:28:04;;;;;;;23.42;13.68;;;;;;;;;;4900250;29;20031;-86
2021/11/14 02:30:31;;;;;;;27.15;14.98;;;;;;;;;;4915471;29;20571;-86
2021/11/14 02:32:57;;;;;;;26.80;14.95;;;;;;;;;;4900282;29;20093;-86
2021/11/14 02:35:24;;;;;;;30.02;16.20;;;;;;;;;;4898876;29;20059;-87
2021/11/14 02:37:51;;;;;;;26.45;14.20;;;;;;;;;;4900337;29;20115;-86
2021/11/14 02:40:18;;;;;;;26.50;14.88;;;;;;;;;;4900094;29;20032;-86
2021/11/14 02:42:46;;;;;;;25.17;15.25;;;;;;;;;;4915505;29;20056;-86
2021/11/14 02:45:13;;;;;;;27.55;14.30;;;;;;;;;;4896703;29;20024;-86
2021/11/14 02:47:40;;;;;;;26.35;15.32;;;;;;;;;;4915433;29;20031;-86
2021/11/14 02:50:08;;;;;;;27.38;15.30;;;;;;;;;;4916751;29;20028;-86
2021/11/14 02:52:34;;;;;;;28.55;15.70;;;;;;;;;;4916080;29;20038;-86
2021/11/14 02:55:01;;;;;;;23.70;14.25;;;;;;;;;;4897168;29;20059;-86
2021/11/14 02:57:27;;;;;;;25.98;15.82;;;;;;;;;;4899904;29;20032;-86
2021/11/14 02:59:53;;;;;;;25.55;14.52;;;;;;;;;;4898756;29;20226;-86
2021/11/14 03:02:19;;;;;;;31.17;15.07;;;;;;;;;;4915795;29;20046;-87
2021/11/14 03:04:45;;;;;;;22.95;13.75;;;;;;;;;;4898635;29;20086;-86
2021/11/14 03:07:12;;;;;;;26.23;15.63;;;;;;;;;;4898107;29;20029;-86
2021/11/14 03:09:38;;;;;;;30.13;16.55;;;;;;;;;;4898166;29;20431;-86
2021/11/14 03:12:05;;;;;;;29.95;15.43;;;;;;;;;;4899206;29;20394;-86
2021/11/14 03:14:31;;;;;;;33.47;16.60;;;;;;;;;;4897834;29;20028;-86
2021/11/14 03:16:57;;;;;;;30.77;16.73;;;;;;;;;;4898802;29;20431;-86
2021/11/14 03:19:23;;;;;;;27.05;14.40;;;;;;;;;;4899648;29;20565;-86
2021/11/14 03:21:50;;;;;;;32.92;15.75;;;;;;;;;;4898854;29;20184;-86
2021/11/14 03:24:17;;;;;;;30.73;15.55;;;;;;;;;;4913416;29;20091;-87
2021/11/14 03:26:43;;;;;;;29.27;16.13;;;;;;;;;;4916564;29;20020;-86
2021/11/14 03:29:09;;;;;;;33.03;17.75;;;;;;;;;;4884901;29;20040;-86
2021/11/14 03:31:36;;;;;;;32.03;15.52;;;;;;;;;;4889012;29;20100;-86
2021/11/14 03:34:02;;;;;;;29.27;14.57;;;;;;;;;;4911861;29;20032;-88
2021/11/14 03:36:28;;;;;;;29.23;15.63;;;;;;;;;;4909945;29;20028;-86
2021/11/14 03:39:00;;;;;;;28.15;14.93;;;;;;;;;;4916815;29;20074;-86
2021/11/14 03:41:29;;;;;;;26.52;14.68;;;;;;;;;;4899262;29;20039;-86
2021/11/14 03:43:55;;;;;;;27.60;14.98;;;;;;;;;;4896398;29;20039;-86
2021/11/14 03:46:22;;;;;;;26.35;14.80;;;;;;;;;;4897944;29;20024;-86
2021/11/14 03:48:49;;;;;;;27.08;15.57;;;;;;;;;;4915501;29;20064;-86
2021/11/14 03:51:16;;;;;;;29.42;15.38;;;;;;;;;;4898827;29;20028;-86
2021/11/14 03:53:42;;;;;;;25.80;14.77;;;;;;;;;;4897590;29;20032;-86
2021/11/14 03:56:08;;;;;;;27.48;15.30;;;;;;;;;;4914983;29;20043;-86
2021/11/14 03:58:35;;;;;;;26.30;15.45;;;;;;;;;;4899073;29;20028;-86
2021/11/14 04:01:02;;;;;;;26.92;14.85;;;;;;;;;;4898049;29;20035;-86
2021/11/14 04:03:29;;;;;;;29.52;16.05;;;;;;;;;;4914451;29;20087;-86
2021/11/14 04:05:55;;;;;;;29.38;16.02;;;;;;;;;;4898824;29;20370;-86
2021/11/14 04:08:23;;;;;;;24.98;15.30;;;;;;;;;;4898093;29;20028;-86
2021/11/14 04:10:51;;;;;;;30.77;17.00;;;;;;;;;;4898425;29;20028;-86
2021/11/14 04:13:17;;;;;;;27.98;15.48;;;;;;;;;;4897831;29;20418;-86
2021/11/14 04:15:44;;;;;;;26.27;15.65;;;;;;;;;;4915081;29;20091;-86
2021/11/14 04:18:10;;;;;;;28.27;15.52;;;;;;;;;;4898545;29;21291;-86
2021/11/14 04:20:37;;;;;;;29.52;15.32;;;;;;;;;;4899361;29;20134;-86
2021/11/14 04:23:04;;;;;;;28.80;16.20;;;;;;;;;;4901781;29;20032;-86
2021/11/14 04:25:30;;;;;;;32.47;15.65;;;;;;;;;;4894677;29;20027;-86
2021/11/14 04:27:56;;;;;;;33.38;17.77;;;;;;;;;;4918668;29;20031;-86
2021/11/14 04:30:23;;;;;;;30.55;15.77;;;;;;;;;;4901723;29;20079;-86
2021/11/14 04:32:49;;;;;;;32.72;17.98;;;;;;;;;;4918769;29;20028;-86
2021/11/14 04:35:15;;;;;;;27.60;14.65;;;;;;;;;;4901802;29;20035;-86
2021/11/14 04:37:41;;;;;;;27.83;16.38;;;;;;;;;;4919515;29;20032;-86
2021/11/14 04:40:08;;;;;;;26.02;14.38;;;;;;;;;;4901589;29;20031;-86
2021/11/14 04:42:34;;;;;;;26.73;14.65;;;;;;;;;;4919046;29;20028;-86
2021/11/14 04:45:01;;;;;;;28.52;15.15;;;;;;;;;;4901732;29;20131;-85
2021/11/14 04:47:27;;;;;;;26.65;14.57;;;;;;;;;;4901903;29;20064;-86
2021/11/14 04:49:53;;;;;;;25.70;14.88;;;;;;;;;;4902419;29;20025;-86
2021/11/14 04:52:19;;;;;;;26.77;14.30;;;;;;;;;;4902076;29;20020;-86
2021/11/14 04:54:46;;;;;;;27.05;15.57;;;;;;;;;;4916370;29;20047;-86
2021/11/14 04:57:12;;;;;;;27.65;14.18;;;;;;;;;;4911982;29;20035;-86
2021/11/14 04:59:38;;;;;;;28.45;15.82;;;;;;;;;;4894368;29;20143;-86
2021/11/14 05:02:04;;;;;;;28.33;15.77;;;;;;;;;;4898746;29;20100;-86
2021/11/14 05:04:30;;;;;;;27.42;16.58;;;;;;;;;;4896709;29;20029;-86
2021/11/14 05:06:56;;;;;;;28.70;15.30;;;;;;;;;;4890135;29;20029;-86
2021/11/14 05:09:22;;;;;;;32.17;16.42;;;;;;;;;;4914111;29;20055;-86
2021/11/14 05:11:48;;;;;;;28.65;15.65;;;;;;;;;;4905792;29;20044;-86
2021/11/14 05:14:14;;;;;;;28.15;15.68;;;;;;;;;;4913836;29;20032;-86
2021/11/14 05:16:40;;;;;;;28.45;15.18;;;;;;;;;;4894732;29;20036;-86
2021/11/14 05:19:06;;;;;;;26.63;14.65;;;;;;;;;;4887874;29;20119;-86
2021/11/14 05:21:32;;;;;;;28.77;15.50;;;;;;;;;;4887962;29;20155;-86
2021/11/14 05:23:59;;;;;;;27.92;15.20;;;;;;;;;;4889285;29;20044;-86
2021/11/14 05:26:25;;;;;;;25.33;15.13;;;;;;;;;;4894942;29;20033;-86
2021/11/14 05:28:51;;;;;;;25.83;14.88;;;;;;;;;;4893617;29;20111;-86
2021/11/14 05:31:17;;;;;;;29.15;15.27;;;;;;;;;;4894095;29;20084;-86
2021/11/14 05:33:43;;;;;;;29.92;17.05;;;;;;;;;;4895463;29;20029;-86
2021/11/14 05:36:09;;;;;;;27.25;16.52;;;;;;;;;;4893588;29;20031;-86
2021/11/14 05:38:35;;;;;;;30.00;16.65;;;;;;;;;;4893731;29;20040;-87
2021/11/14 05:41:01;;;;;;;29.30;16.60;;;;;;;;;;4899228;29;20525;-86
2021/11/14 05:43:27;;;;;;;27.80;16.42;;;;;;;;;;4894358;29;20491;-86
2021/11/14 05:45:53;;;;;;;26.67;15.10;;;;;;;;;;4893734;29;20068;-86
2021/11/14 05:48:19;;;;;;;30.65;15.90;;;;;;;;;;4896686;29;20020;-87
2021/11/14 05:50:45;;;;;;;26.92;15.13;;;;;;;;;;4896960;29;20040;-86
2021/11/14 05:53:11;;;;;;;24.48;14.23;;;;;;;;;;4897364;29;20051;-86
2021/11/14 05:55:38;;;;;;;25.42;14.23;;;;;;;;;;4897949;29;20080;-85
2021/11/14 05:58:08;;;;;;;26.30;15.27;;;;;;;;;;4897724;29;20205;-86
2021/11/14 06:01:06;;;;;;;27.58;16.55;;;;;;;;;;4896922;29;20045;-87
2021/11/14 06:03:41;;;;;;;28.00;16.50;;;;;;;;;;4898219;29;20060;-86
2021/11/14 06:06:07;;;;;;;27.08;14.95;;;;;;;;;;4897485;29;20032;-86
2021/11/14 06:08:34;;;;;;;31.27;16.88;;;;;;;;;;4897611;29;20033;-86
2021/11/14 06:11:00;;;;;;;30.23;16.02;;;;;;;;;;4897065;29;20025;-86
2021/11/14 06:13:27;;;;;;;31.15;17.55;;;;;;;;;;4897530;29;20045;-85
2021/11/14 06:15:54;;;;;;;29.85;16.27;;;;;;;;;;4896846;29;20119;-86
2021/11/14 06:18:20;;;;;;;30.00;16.63;;;;;;;;;;4897437;29;20031;-86
2021/11/14 06:20:47;;;;;;;29.10;15.40;;;;;;;;;;4902818;29;20029;-86
2021/11/14 06:23:13;;;;;;;30.58;17.30;;;;;;;;;;4899820;29;20116;-86
2021/11/14 06:25:39;;;;;;;32.33;15.98;;;;;;;;;;4897253;29;20033;-86
2021/11/14 06:28:05;;;;;;;30.85;15.90;;;;;;;;;;4912446;29;20048;-86
2021/11/14 06:30:31;;;;;;;25.85;15.05;;;;;;;;;;4902872;29;20027;-86
2021/11/14 06:32:58;;;;;;;27.77;15.73;;;;;;;;;;4897025;29;20124;-86
2021/11/14 06:35:24;;;;;;;29.00;16.10;;;;;;;;;;4898190;29;20125;-86
2021/11/14 06:37:51;;;;;;;28.02;15.80;;;;;;;;;;4896879;29;20482;-86
2021/11/14 06:40:18;;;;;;;25.08;15.27;;;;;;;;;;4896817;29;20035;-86
2021/11/14 06:42:44;;;;;;;29.63;16.00;;;;;;;;;;4896477;29;20383;-86
2021/11/14 06:45:10;;;;;;;28.58;15.10;;;;;;;;;;4896150;29;20471;-86
2021/11/14 06:47:37;;;;;;;26.25;15.00;;;;;;;;;;4898144;29;20068;-86
2021/11/14 06:50:04;;;;;;;29.02;16.92;;;;;;;;;;4896732;29;20025;-86
2021/11/14 06:52:30;;;;;;;29.85;16.48;;;;;;;;;;4897738;29;20542;-85
2021/11/14 06:54:56;;;;;;;29.75;16.58;;;;;;;;;;4897679;29;20079;-85
2021/11/14 06:57:22;;;;;;;29.10;15.27;;;;;;;;;;4897663;29;20029;-85
2021/11/14 06:59:49;;;;;;;26.55;15.35;;;;;;;;;;4909553;29;20457;-86
2021/11/14 07:02:15;;;;;;;34.42;18.05;;;;;;;;;;4900230;29;20062;-85
2021/11/14 07:04:41;;;;;;;31.17;17.33;;;;;;;;;;4920861;29;20031;-86
2021/11/14 07:07:07;;;;;;;30.38;16.70;;;;;;;;;;4926330;29;20028;-86
2021/11/14 07:09:33;;;;;;;32.00;17.17;;;;;;;;;;4907552;29;20123;-86
2021/11/14 07:11:59;;;;;;;30.55;16.85;;;;;;;;;;4898908;29;20048;-86
2021/11/14 07:14:26;;;;;;;28.73;17.67;;;;;;;;;;4899548;29;20100;-86
2021/11/14 07:16:53;;;;;;;29.02;16.77;;;;;;;;;;4916419;29;20039;-86
2021/11/14 07:19:19;;;;;;;32.58;17.73;;;;;;;;;;4899057;29;20046;-86
2021/11/14 07:21:46;;;;;;;32.85;18.65;;;;;;;;;;4899975;29;20040;-86
2021/11/14 07:24:13;;;;;;;30.52;17.17;;;;;;;;;;4899616;29;20504;-86
2021/11/14 07:26:39;;;;;;;28.67;17.27;;;;;;;;;;4899914;29;20036;-86
2021/11/14 07:29:05;;;;;;;26.98;16.35;;;;;;;;;;4916715;29;20032;-86
2021/11/14 07:31:31;;;;;;;31.67;17.05;;;;;;;;;;4899733;29;20478;-87
2021/11/14 07:33:58;;;;;;;27.25;17.25;;;;;;;;;;4916800;29;20039;-86
2021/11/14 07:36:24;;;;;;;32.53;18.45;;;;;;;;;;4898851;29;20087;-86
2021/11/14 07:38:50;;;;;;;31.60;19.50;;;;;;;;;;4899784;29;20083;-86
2021/11/14 07:41:16;;;;;;;31.50;19.42;;;;;;;;;;4900446;29;20438;-86
2021/11/14 07:43:42;;;;;;;32.13;18.40;;;;;;;;;;4899360;29;20027;-86
2021/11/14 07:46:09;;;;;;;29.05;17.45;;;;;;;;;;4916606;29;20035;-86
2021/11/14 07:48:35;;;;;;;31.38;18.50;;;;;;;;;;4900575;29;20027;-86
2021/11/14 07:51:02;;;;;;;33.90;19.20;;;;;;;;;;4900226;29;20024;-86
2021/11/14 07:53:29;;;;;;;32.47;18.95;;;;;;;;;;4899912;29;20055;-85
2021/11/14 07:55:55;;;;;;;30.27;18.10;;;;;;;;;;4901826;29;20470;-85
2021/11/14 07:58:21;;;;;;;32.08;19.33;;;;;;;;;;4902756;29;20490;-85
2021/11/14 08:00:48;;;;;;;35.42;19.63;;;;;;;;;;4903147;29;20040;-86
2021/11/14 08:03:14;;;;;;;33.72;17.85;;;;;;;;;;4919746;29;20067;-86
2021/11/14 08:05:41;;;;;;;30.85;18.55;;;;;;;;;;4901125;29;20544;-86
2021/11/14 08:08:08;;;;;;;37.38;20.63;;;;;;;;;;4902631;29;20032;-86
2021/11/14 08:10:34;;;;;;;34.80;19.70;;;;;;;;;;4919267;29;20032;-86
2021/11/14 08:13:01;;;;;;;38.00;20.17;;;;;;;;;;4902263;29;20032;-86
2021/11/14 08:15:27;;;;;;;39.90;19.40;;;;;;;;;;4902884;29;20028;-86
2021/11/14 08:17:54;;;;;;;37.13;20.48;;;;;;;;;;4902989;29;20391;-86
2021/11/14 08:20:20;;;;;;;39.03;20.30;;;;;;;;;;4902379;29;20046;-86
2021/11/14 08:22:46;;;;;;;42.33;20.92;;;;;;;;;;4919026;29;20028;-86
2021/11/14 08:25:14;;;;;;;36.97;19.05;;;;;;;;;;4902719;29;20062;-87
2021/11/14 08:27:41;;;;;;;34.70;18.38;;;;;;;;;;4902015;29;20446;-86
2021/11/14 08:30:10;;;;;;;38.55;19.23;;;;;;;;;;4919164;29;20027;-86
2021/11/14 08:32:36;;;;;;;35.17;18.63;;;;;;;;;;4902912;29;20089;-86
2021/11/14 08:35:03;;;;;;;41.47;20.75;;;;;;;;;;4919052;29;20028;-86
2021/11/14 08:37:29;;;;;;;36.97;20.08;;;;;;;;;;4903287;29;20028;-86
2021/11/14 08:39:55;;;;;;;34.30;19.00;;;;;;;;;;4913916;29;20031;-86
2021/11/14 08:42:21;;;;;;;37.15;19.27;;;;;;;;;;4920490;29;20032;-86
2021/11/14 08:44:47;;;;;;;35.88;18.65;;;;;;;;;;4920132;29;20032;-86
2021/11/14 08:47:13;;;;;;;36.67;18.30;;;;;;;;;;4918035;29;20021;-86
2021/11/14 08:49:40;;;;;;;31.00;17.45;;;;;;;;;;4918799;29;20043;-85
2021/11/14 08:52:06;;;;;;;30.27;17.73;;;;;;;;;;4918807;29;20028;-85
2021/11/14 08:54:32;;;;;;;38.10;20.02;;;;;;;;;;4919205;29;20031;-85
2021/11/14 08:56:58;;;;;;;37.20;20.13;;;;;;;;;;4904709;29;20363;-86
2021/11/14 08:59:24;;;;;;;41.13;22.13;;;;;;;;;;4918695;29;20391;-86
2021/11/14 09:01:50;;;;;;;29.40;17.52;;;;;;;;;;4902137;29;20446;-86
2021/11/14 09:04:16;;;;;;;36.25;19.13;;;;;;;;;;4918975;29;20020;-86
2021/11/14 09:06:42;;;;;;;37.83;19.77;;;;;;;;;;4900788;29;20056;-86
2021/11/14 09:09:10;;;;;;;40.78;20.40;;;;;;;;;;4918756;29;20083;-86
2021/11/14 09:11:43;;;;;;;33.33;19.30;;;;;;;;;;4901794;29;20024;-86
2021/11/14 09:14:10;;;;;;;38.83;20.45;;;;;;;;;;4902049;29;20036;-86
2021/11/14 09:16:36;;;;;;;38.47;20.90;;;;;;;;;;4902175;29;20058;-86
2021/11/14 09:19:03;;;;;;;35.75;18.90;;;;;;;;;;4900987;29;20389;-86
2021/11/14 09:21:29;;;;;;;35.25;19.88;;;;;;;;;;4915843;29;20031;-85
2021/11/14 09:23:55;;;;;;;37.47;19.30;;;;;;;;;;4922552;29;20032;-86
2021/11/14 09:26:21;;;;;;;39.20;18.50;;;;;;;;;;4907546;29;20478;-86
2021/11/14 09:28:47;;;;;;;38.08;17.73;;;;;;;;;;4937512;29;20031;-85
2021/11/14 09:31:13;;;;;;;38.78;19.27;;;;;;;;;;4936419;29;20023;-85
2021/11/14 09:33:40;;;;;;;32.35;17.25;;;;;;;;;;4930812;29;20435;-85
2021/11/14 09:36:07;;;;;;;37.03;19.92;;;;;;;;;;4901313;29;20054;-85
2021/11/14 09:38:33;;;;;;;34.25;18.10;;;;;;;;;;4901816;29;20034;-85
2021/11/14 09:41:00;;;;;;;34.53;19.30;;;;;;;;;;4901302;29;20048;-85
2021/11/14 09:43:28;;;;;;;38.47;20.33;;;;;;;;;;4901250;29;20028;-85
2021/11/14 09:45:54;;;;;;;35.85;20.13;;;;;;;;;;4901427;29;20032;-85
2021/11/14 09:48:21;;;;;;;36.63;20.67;;;;;;;;;;4900823;29;20387;-86
2021/11/14 09:50:48;;;;;;;32.88;16.85;;;;;;;;;;4900478;29;20024;-86
2021/11/14 09:53:14;;;;;;;33.00;16.85;;;;;;;;;;4916031;29;20374;-85
2021/11/14 09:55:40;;;;;;;34.20;15.70;;;;;;;;;;4916872;29;20497;-86
2021/11/14 09:58:07;;;;;;;30.70;16.15;;;;;;;;;;4919401;29;20096;-85
2021/11/14 10:00:34;;;;;;;36.83;17.17;;;;;;;;;;4902050;29;20138;-86
2021/11/14 10:03:01;;;;;;;29.00;16.20;;;;;;;;;;4918177;29;20028;-86
2021/11/14 10:05:27;;;;;;;35.60;16.00;;;;;;;;;;4899820;29;20897;-86
2021/11/14 10:07:54;;;;;;;28.42;16.08;;;;;;;;;;4898700;29;20028;-86
2021/11/14 10:10:20;;;;;;;30.17;15.73;;;;;;;;;;4898191;29;20083;-85
2021/11/14 10:12:46;;;;;;;31.45;16.63;;;;;;;;;;4917594;29;20055;-86
2021/11/14 10:15:17;;;;;;;29.77;16.60;;;;;;;;;;4900110;29;20475;-86
2021/11/14 10:17:51;;;;;;;30.65;16.42;;;;;;;;;;4899875;29;20043;-86
2021/11/14 10:20:25;;;;;;;31.55;16.75;;;;;;;;;;4916830;29;20051;-86
2021/11/14 10:22:53;;;;;;;32.42;16.92;;;;;;;;;;4899473;29;20042;-86
2021/11/14 10:25:20;;;;;;;32.53;16.10;;;;;;;;;;4900472;29;20075;-86
2021/11/14 10:27:53;;;;;;;30.92;17.33;;;;;;;;;;4899014;29;20036;-86
2021/11/14 10:30:24;;;;;;;25.98;15.25;;;;;;;;;;4899927;29;20491;-85
2021/11/14 10:32:54;;;;;;;29.30;14.85;;;;;;;;;;4899946;29;20406;-85
2021/11/14 10:35:21;;;;;;;27.33;15.07;;;;;;;;;;4900070;29;20128;-86
2021/11/14 10:37:47;;;;;;;31.65;16.65;;;;;;;;;;4900738;29;20028;-86
2021/11/14 10:40:18;;;;;;;30.95;15.07;;;;;;;;;;4922901;29;20027;-87
2021/11/14 10:42:46;;;;;;;35.15;16.45;;;;;;;;;;4921541;29;20051;-86
2021/11/14 10:45:12;;;;;;;24.50;12.93;;;;;;;;;;4907401;29;20034;-85
2021/11/14 10:47:38;;;;;;;25.65;13.55;;;;;;;;;;4917291;29;20029;-86
2021/11/14 10:50:07;;;;;;;28.67;13.93;;;;;;;;;;4899753;29;20047;-86
2021/11/14 10:52:33;;;;;;;27.77;12.50;;;;;;;;;;4900196;29;20516;-86
2021/11/14 10:55:01;;;;;;;22.13;11.73;;;;;;;;;;4885839;29;20086;-86
2021/11/14 10:57:31;;;;;;;26.42;12.90;;;;;;;;;;4900383;29;20036;-86
2021/11/14 10:59:57;;;;;;;22.20;12.00;;;;;;;;;;4899167;29;20044;-86
2021/11/14 11:02:25;;;;;;;22.92;12.50;;;;;;;;;;4917375;29;20032;-86
2021/11/14 11:04:52;;;;;;;25.52;12.52;;;;;;;;;;4900218;29;20052;-86
2021/11/14 11:07:19;;;;;;;23.88;11.90;;;;;;;;;;4900530;29;20028;-86
2021/11/14 11:09:45;;;;;;;22.50;11.05;;;;;;;;;;4916746;29;20119;-86
2021/11/14 11:12:22;;;;;;;20.52;10.55;;;;;;;;;;4899445;29;20064;-86
2021/11/14 11:14:53;;;;;;;25.63;13.38;;;;;;;;;;4917829;29;20177;-86
2021/11/14 11:17:19;;;;;;;22.40;11.73;;;;;;;;;;4899651;29;20038;-86
2021/11/14 11:19:45;;;;;;;21.23;11.93;;;;;;;;;;4899841;29;20040;-86
2021/11/14 11:22:11;;;;;;;20.85;11.10;;;;;;;;;;4899975;29;20031;-86
2021/11/14 11:24:47;;;;;;;21.42;11.90;;;;;;;;;;4900347;29;20145;-86
2021/11/14 11:27:13;;;;;;;21.63;12.13;;;;;;;;;;4900398;29;20058;-86
2021/11/14 11:29:39;;;;;;;23.83;11.88;;;;;;;;;;4901346;29;20386;-86
2021/11/14 11:32:07;;;;;;;24.95;12.88;;;;;;;;;;4900358;29;20080;-86
2021/11/14 11:34:33;;;;;;;25.50;11.52;;;;;;;;;;4916348;29;20028;-86
2021/11/14 11:36:59;;;;;;;23.60;13.70;;;;;;;;;;4898548;29;20249;-86
2021/11/14 11:39:26;;;;;;;25.08;12.05;;;;;;;;;;4899517;29;20044;-86
2021/11/14 11:41:54;;;;;;;23.23;11.63;;;;;;;;;;4899432;29;20028;-86
2021/11/14 11:44:20;;;;;;;21.42;11.82;;;;;;;;;;4899597;29;20059;-86
2021/11/14 11:46:48;;;;;;;21.55;11.32;;;;;;;;;;4899772;29;20084;-86
2021/11/14 11:49:19;;;;;;;19.80;11.30;;;;;;;;;;4915976;29;20032;-87
2021/11/14 11:51:53;;;;;;;22.83;12.90;;;;;;;;;;4899530;29;20039;-86
2021/11/14 11:54:20;;;;;;;27.67;13.95;;;;;;;;;;4899431;29;20028;-86
2021/11/14 11:57:01;;;;;;;27.40;14.75;;;;;;;;;;4899266;29;20028;-86
2021/11/14 11:59:35;;;;;;;33.35;15.10;;;;;;;;;;4899407;29;20108;-86
2021/11/14 12:02:06;;;;;;;27.27;14.45;;;;;;;;;;4899316;29;20032;-86
2021/11/14 12:04:37;;;;;;;24.88;14.15;;;;;;;;;;4895673;29;20025;-86
2021/11/14 12:07:06;;;;;;;30.15;14.93;;;;;;;;;;4915719;29;20016;-86
2021/11/14 12:09:37;;;;;;;24.58;13.73;;;;;;;;;;4899545;29;20025;-86
2021/11/14 12:12:03;;;;;;;25.88;13.60;;;;;;;;;;4898046;29;20068;-86
2021/11/14 12:14:31;;;;;;;24.95;13.20;;;;;;;;;;4915731;29;20413;-86
2021/11/14 12:16:59;;;;;;;30.02;13.30;;;;;;;;;;4915435;29;20350;-87
2021/11/14 12:19:26;;;;;;;26.08;12.20;;;;;;;;;;4901976;29;20449;-86
2021/11/14 12:21:56;;;;;;;23.67;12.75;;;;;;;;;;4916352;29;20474;-86
2021/11/14 12:24:22;;;;;;;26.30;14.75;;;;;;;;;;4899117;29;20051;-86
2021/11/14 12:26:48;;;;;;;27.58;14.45;;;;;;;;;;4898498;29;20457;-86
2021/11/14 12:29:28;;;;;;;26.70;13.85;;;;;;;;;;4898872;29;20501;-86
2021/11/14 12:31:56;;;;;;;20.88;11.52;;;;;;;;;;4898468;29;20042;-86
2021/11/14 12:34:27;;;;;;;24.08;12.35;;;;;;;;;;4898440;29;20032;-86
2021/11/14 12:37:08;;;;;;;25.52;13.63;;;;;;;;;;4898862;29;20028;-86
2021/11/14 12:39:34;;;;;;;23.33;11.95;;;;;;;;;;4897146;29;20051;-87
2021/11/14 12:42:07;;;;;;;25.38;13.30;;;;;;;;;;4899847;29;20024;-86
2021/11/14 12:44:48;;;;;;;25.38;13.38;;;;;;;;;;4901690;29;20530;-86
2021/11/14 12:47:40;;;;;;;22.27;13.25;;;;;;;;;;4918583;29;20035;-86
2021/11/14 12:50:06;;;;;;;22.80;11.75;;;;;;;;;;4900397;29;20493;-86
2021/11/14 12:52:33;;;;;;;24.90;14.13;;;;;;;;;;4919112;29;20032;-87
2021/11/14 12:55:04;;;;;;;22.85;13.18;;;;;;;;;;4918162;29;20024;-86
2021/11/14 12:57:40;;;;;;;26.35;12.82;;;;;;;;;;4883838;29;20068;-86
2021/11/14 13:00:07;;;;;;;24.60;12.98;;;;;;;;;;4880441;29;20113;-86
2021/11/14 13:02:33;;;;;;;25.58;13.80;;;;;;;;;;4898590;29;20463;-86
2021/11/14 13:05:07;;;;;;;25.75;14.15;;;;;;;;;;4899565;29;20423;-86
2021/11/14 13:07:34;;;;;;;26.20;15.02;;;;;;;;;;4898038;29;20092;-86
2021/11/14 13:10:00;;;;;;;27.20;14.93;;;;;;;;;;4914737;29;20035;-87
2021/11/14 13:12:27;;;;;;;25.88;15.27;;;;;;;;;;4899664;29;20570;-86
2021/11/14 13:14:56;;;;;;;27.17;15.52;;;;;;;;;;4898874;29;20399;-86
2021/11/14 13:17:23;;;;;;;28.17;15.98;;;;;;;;;;4897058;29;20033;-87
2021/11/14 13:19:49;;;;;;;26.90;14.85;;;;;;;;;;4898424;29;20446;-86
2021/11/14 13:22:17;;;;;;;26.45;15.13;;;;;;;;;;4906477;29;20486;-86
2021/11/14 13:24:48;;;;;;;26.70;16.05;;;;;;;;;;4899374;29;20029;-86
2021/11/14 13:27:15;;;;;;;27.75;14.35;;;;;;;;;;4895466;29;20028;-86
2021/11/14 13:29:42;;;;;;;29.70;15.35;;;;;;;;;;4899111;29;20028;-86
2021/11/14 13:32:13;;;;;;;28.02;16.15;;;;;;;;;;4897828;29;20040;-86
2021/11/14 13:34:40;;;;;;;27.05;14.45;;;;;;;;;;4898933;29;20036;-86
2021/11/14 13:37:09;;;;;;;29.58;15.88;;;;;;;;;;4897976;29;20044;-86
2021/11/14 13:39:37;;;;;;;28.63;14.98;;;;;;;;;;4899408;29;20055;-87
2021/11/14 13:42:13;;;;;;;24.65;14.40;;;;;;;;;;4898968;29;20028;-86
2021/11/14 13:44:40;;;;;;;25.75;15.25;;;;;;;;;;4897970;29;20032;-86
2021/11/14 13:47:11;;;;;;;27.90;15.70;;;;;;;;;;4897474;29;20574;-86
2021/11/14 13:49:37;;;;;;;28.13;14.25;;;;;;;;;;4898091;29;20115;-88
2021/11/14 13:52:05;;;;;;;25.65;14.38;;;;;;;;;;4897914;29;20116;-89
2021/11/14 13:54:31;;;;;;;32.60;16.10;;;;;;;;;;4897584;29;20035;-88
2021/11/14 13:56:57;;;;;;;28.75;13.88;;;;;;;;;;4898213;29;20040;-88
2021/11/14 13:59:23;;;;;;;28.45;14.50;;;;;;;;;;4889901;29;20041;-88
2021/11/14 14:01:57;;;;;;;26.90;14.30;;;;;;;;;;4898997;29;20040;-89
2021/11/14 14:04:25;;;;;;;26.20;14.65;;;;;;;;;;4899448;29;20020;-88
2021/11/14 14:07:04;;;;;;;24.67;14.35;;;;;;;;;;4882225;29;20427;-88
2021/11/14 14:09:31;;;;;;;27.05;14.10;;;;;;;;;;4898668;29;20024;-88
2021/11/14 14:11:57;;;;;;;27.58;14.10;;;;;;;;;;4876422;29;20554;-88
2021/11/14 14:14:24;;;;;;;21.50;13.38;;;;;;;;;;4895766;29;20048;-88
2021/11/14 14:16:51;;;;;;;25.10;13.60;;;;;;;;;;4874869;29;20039;-89